Time;durP1;ratioP1;P1;durP2;ratioP2;P2;SDS_P1;SDS_P2;PMS_P1;PMS_P2;Temp;Humidity;BMP_temperature;BMP_pressure;BME280_temperature;BME280_humidity;BME280_pressure;Samples;Min_cycle;Max_cycle;Signal;HPM_P1;HPM_P2
2022/03/30 00:01:24;;;;;;;11.77;6.60;;;;;;;;;;5012927;28;20203;-84
2022/03/30 00:03:51;;;;;;;9.43;6.33;;;;;;;;;;5013012;28;20199;-84
2022/03/30 00:06:18;;;;;;;9.57;6.20;;;;;;;;;;5012991;28;20227;-84
2022/03/30 00:08:46;;;;;;;10.97;6.07;;;;;;;;;;5012672;28;20202;-84
2022/03/30 00:11:13;;;;;;;9.53;6.30;;;;;;;;;;5013455;28;20203;-84
2022/03/30 00:13:42;;;;;;;12.23;5.97;;;;;;;;;;5013306;28;20290;-84
2022/03/30 00:16:12;;;;;;;10.20;5.50;;;;;;;;;;5013018;28;20287;-84
2022/03/30 00:18:39;;;;;;;7.53;5.77;;;;;;;;;;5012895;28;20668;-84
2022/03/30 00:21:07;;;;;;;9.13;6.50;;;;;;;;;;5012666;28;20195;-84
2022/03/30 00:23:34;;;;;;;9.27;6.10;;;;;;;;;;5012585;28;20214;-84
2022/03/30 00:26:01;;;;;;;7.97;6.83;;;;;;;;;;5012382;28;20246;-84
2022/03/30 00:28:29;;;;;;;10.90;6.87;;;;;;;;;;5012409;28;20203;-84
2022/03/30 00:30:58;;;;;;;12.83;6.67;;;;;;;;;;5013154;28;20206;-84
2022/03/30 00:33:25;;;;;;;10.80;5.77;;;;;;;;;;5012262;28;20199;-85
2022/03/30 00:35:53;;;;;;;8.93;6.67;;;;;;;;;;5012317;28;20761;-84
2022/03/30 00:38:20;;;;;;;9.07;5.33;;;;;;;;;;5013888;28;20615;-84
2022/03/30 00:40:48;;;;;;;13.93;6.23;;;;;;;;;;5012684;28;20195;-84
2022/03/30 00:43:15;;;;;;;9.80;6.17;;;;;;;;;;5012837;28;20200;-84
2022/03/30 00:45:43;;;;;;;9.37;5.53;;;;;;;;;;5012478;28;20230;-84
2022/03/30 00:48:11;;;;;;;8.80;6.30;;;;;;;;;;5012075;28;20223;-84
2022/03/30 00:50:39;;;;;;;12.27;7.00;;;;;;;;;;5012270;28;20195;-84
2022/03/30 00:53:06;;;;;;;11.20;6.70;;;;;;;;;;5012490;28;20562;-84
2022/03/30 00:55:34;;;;;;;16.93;8.37;;;;;;;;;;5012561;28;20241;-84
2022/03/30 00:58:02;;;;;;;12.47;7.63;;;;;;;;;;5012067;28;20681;-84
2022/03/30 01:00:29;;;;;;;13.93;8.47;;;;;;;;;;5012593;28;20585;-84
2022/03/30 01:02:56;;;;;;;13.73;7.30;;;;;;;;;;5012553;28;20206;-84
2022/03/30 01:05:25;;;;;;;10.33;6.93;;;;;;;;;;5012131;28;20195;-84
2022/03/30 01:07:53;;;;;;;11.97;7.10;;;;;;;;;;5012853;28;20219;-84
2022/03/30 01:10:20;;;;;;;13.83;7.50;;;;;;;;;;5012631;28;20290;-84
2022/03/30 01:12:52;;;;;;;10.60;7.50;;;;;;;;;;5011302;28;20290;-84
2022/03/30 01:15:19;;;;;;;13.93;6.80;;;;;;;;;;5012736;28;20184;-84
2022/03/30 01:17:47;;;;;;;11.47;6.13;;;;;;;;;;5012240;28;20288;-84
2022/03/30 01:20:18;;;;;;;8.07;6.53;;;;;;;;;;5012151;28;20631;-86
2022/03/30 01:22:47;;;;;;;10.47;6.47;;;;;;;;;;5012305;28;20218;-84
2022/03/30 01:25:14;;;;;;;11.47;6.87;;;;;;;;;;5012190;28;20200;-85
2022/03/30 01:27:42;;;;;;;9.37;6.83;;;;;;;;;;5012481;28;20671;-86
2022/03/30 01:32:55;;;;;;;11.43;7.33;;;;;;;;;;5013614;28;20204;-87
2022/03/30 01:35:23;;;;;;;10.43;7.03;;;;;;;;;;5012735;28;20235;-87
2022/03/30 01:37:53;;;;;;;9.20;6.63;;;;;;;;;;5016358;28;20577;-87
2022/03/30 01:40:20;;;;;;;20.77;9.13;;;;;;;;;;5016113;28;20654;-86
2022/03/30 01:42:47;;;;;;;12.10;8.27;;;;;;;;;;5015799;28;20295;-85
2022/03/30 01:45:16;;;;;;;8.50;6.97;;;;;;;;;;5015545;28;20589;-86
2022/03/30 01:47:49;;;;;;;16.37;8.30;;;;;;;;;;5015030;28;20232;-86
2022/03/30 01:50:16;;;;;;;12.63;8.23;;;;;;;;;;5016309;28;20696;-86
2022/03/30 01:52:43;;;;;;;9.03;6.87;;;;;;;;;;5015749;28;20299;-87
2022/03/30 01:55:12;;;;;;;9.07;7.10;;;;;;;;;;5016434;28;20203;-86
2022/03/30 01:57:39;;;;;;;8.67;7.00;;;;;;;;;;5016114;28;20624;-86
2022/03/30 02:00:08;;;;;;;11.27;7.50;;;;;;;;;;5015616;28;20230;-86
2022/03/30 02:02:35;;;;;;;11.67;7.80;;;;;;;;;;5015722;28;20688;-85
2022/03/30 02:05:03;;;;;;;10.17;8.63;;;;;;;;;;5015522;28;20207;-86
2022/03/30 02:07:30;;;;;;;12.90;7.80;;;;;;;;;;5015107;28;20223;-86
2022/03/30 02:09:57;;;;;;;15.40;8.43;;;;;;;;;;5015314;28;20199;-86
2022/03/30 02:12:26;;;;;;;10.60;8.67;;;;;;;;;;5015534;28;20671;-85
2022/03/30 02:14:53;;;;;;;23.13;11.63;;;;;;;;;;5015045;28;20200;-85
2022/03/30 02:17:23;;;;;;;14.43;8.87;;;;;;;;;;5015268;28;20583;-86
2022/03/30 02:19:51;;;;;;;14.43;9.63;;;;;;;;;;5015812;28;20196;-85
2022/03/30 02:22:18;;;;;;;14.70;9.03;;;;;;;;;;5015150;28;20200;-87
2022/03/30 02:24:45;;;;;;;15.87;9.23;;;;;;;;;;5014968;28;20298;-86
2022/03/30 02:27:12;;;;;;;11.57;8.67;;;;;;;;;;5014924;28;20223;-86
2022/03/30 02:29:41;;;;;;;10.50;7.13;;;;;;;;;;5014919;28;20676;-87
2022/03/30 02:32:09;;;;;;;10.70;8.67;;;;;;;;;;5015096;28;20206;-87
2022/03/30 02:34:36;;;;;;;13.43;8.17;;;;;;;;;;5023552;28;20227;-85
2022/03/30 02:37:04;;;;;;;11.23;8.50;;;;;;;;;;5014891;28;20199;-86
2022/03/30 02:39:31;;;;;;;10.67;8.27;;;;;;;;;;5015052;28;20282;-86
2022/03/30 02:41:58;;;;;;;15.60;8.57;;;;;;;;;;5014568;28;20211;-86
2022/03/30 02:44:26;;;;;;;13.20;8.00;;;;;;;;;;5014595;28;20211;-85
2022/03/30 02:46:54;;;;;;;15.97;7.70;;;;;;;;;;5013947;28;20223;-85
2022/03/30 02:49:22;;;;;;;17.97;8.47;;;;;;;;;;5032486;28;20585;-85
2022/03/30 02:51:49;;;;;;;11.37;7.97;;;;;;;;;;5034424;28;20198;-87
2022/03/30 02:54:16;;;;;;;10.53;8.57;;;;;;;;;;5034032;28;20237;-84
2022/03/30 02:56:43;;;;;;;10.10;7.37;;;;;;;;;;5034632;28;20558;-84
2022/03/30 02:59:11;;;;;;;13.57;8.13;;;;;;;;;;5033747;28;20698;-84
2022/03/30 03:01:38;;;;;;;16.57;8.10;;;;;;;;;;5034151;28;20194;-84
2022/03/30 03:04:07;;;;;;;15.13;8.83;;;;;;;;;;5033395;28;20697;-83
2022/03/30 03:06:34;;;;;;;12.57;9.03;;;;;;;;;;5034195;28;20207;-83
2022/03/30 03:09:01;;;;;;;15.03;10.13;;;;;;;;;;5033287;28;20207;-84
2022/03/30 03:11:29;;;;;;;13.43;9.27;;;;;;;;;;5033638;28;20242;-84
2022/03/30 03:13:56;;;;;;;11.53;8.43;;;;;;;;;;5033008;28;20199;-83
2022/03/30 03:16:23;;;;;;;12.93;7.93;;;;;;;;;;5031993;28;20289;-83
2022/03/30 03:18:50;;;;;;;12.67;9.10;;;;;;;;;;5032554;28;20206;-83
2022/03/30 03:21:19;;;;;;;14.00;7.97;;;;;;;;;;5032432;28;20199;-83
2022/03/30 03:23:46;;;;;;;12.33;9.10;;;;;;;;;;5032330;28;20198;-83
2022/03/30 03:26:13;;;;;;;14.37;8.73;;;;;;;;;;5033356;28;20555;-83
2022/03/30 03:28:40;;;;;;;13.30;8.90;;;;;;;;;;5031851;28;20226;-83
2022/03/30 03:31:08;;;;;;;10.73;8.50;;;;;;;;;;5033172;28;20576;-82
2022/03/30 03:33:35;;;;;;;16.53;8.33;;;;;;;;;;5032302;28;20195;-83
2022/03/30 03:36:02;;;;;;;13.37;7.70;;;;;;;;;;5031842;28;20235;-83
2022/03/30 03:38:31;;;;;;;12.87;8.50;;;;;;;;;;5022624;28;20204;-86
2022/03/30 03:40:58;;;;;;;10.03;7.97;;;;;;;;;;5013191;28;20199;-86
2022/03/30 03:43:25;;;;;;;14.03;9.40;;;;;;;;;;5013880;28;20195;-85
2022/03/30 03:45:52;;;;;;;10.57;9.27;;;;;;;;;;5013178;28;20202;-86
2022/03/30 03:48:20;;;;;;;17.20;10.13;;;;;;;;;;5012672;28;20308;-86
2022/03/30 03:50:47;;;;;;;17.27;9.93;;;;;;;;;;5013357;28;20278;-86
2022/03/30 03:53:14;;;;;;;11.13;10.00;;;;;;;;;;5012775;28;20203;-86
2022/03/30 03:55:43;;;;;;;13.77;10.63;;;;;;;;;;5012662;28;20199;-86
2022/03/30 03:58:11;;;;;;;12.47;11.17;;;;;;;;;;5013200;28;20573;-86
2022/03/30 04:00:38;;;;;;;11.10;10.00;;;;;;;;;;5012791;28;20207;-86
2022/03/30 04:03:05;;;;;;;12.10;8.93;;;;;;;;;;5012529;28;20203;-86
2022/03/30 04:05:32;;;;;;;11.33;8.37;;;;;;;;;;5012802;28;20204;-86
2022/03/30 04:07:59;;;;;;;14.37;8.23;;;;;;;;;;5012233;28;20227;-86
2022/03/30 04:10:27;;;;;;;16.43;9.20;;;;;;;;;;5012828;28;20238;-86
2022/03/30 04:12:56;;;;;;;12.00;9.37;;;;;;;;;;5012486;28;20195;-86
2022/03/30 04:15:23;;;;;;;11.87;8.90;;;;;;;;;;5012663;28;20279;-87
2022/03/30 04:17:51;;;;;;;13.97;10.07;;;;;;;;;;5012737;28;20234;-86
2022/03/30 04:20:18;;;;;;;11.57;10.23;;;;;;;;;;5012831;28;20211;-86
2022/03/30 04:22:47;;;;;;;17.87;13.13;;;;;;;;;;5013267;28;20195;-87
2022/03/30 04:25:14;;;;;;;17.93;11.50;;;;;;;;;;5014206;28;20213;-87
2022/03/30 04:27:46;;;;;;;10.53;9.37;;;;;;;;;;5032728;28;20222;-87
2022/03/30 04:30:15;;;;;;;32.37;24.63;;;;;;;;;;5033052;28;20394;-88
2022/03/30 04:32:43;;;;;;;26.53;23.60;;;;;;;;;;5033546;28;20190;-88
2022/03/30 04:35:11;;;;;;;36.97;29.57;;;;;;;;;;5032545;28;20610;-88
2022/03/30 04:37:39;;;;;;;17.63;12.57;;;;;;;;;;5034207;28;20252;-88
2022/03/30 04:40:07;;;;;;;18.13;9.67;;;;;;;;;;5032698;28;20218;-88
2022/03/30 04:42:34;;;;;;;13.80;9.20;;;;;;;;;;5032997;28;20199;-88
2022/03/30 04:45:02;;;;;;;15.10;8.57;;;;;;;;;;5033244;28;20187;-87
2022/03/30 04:47:32;;;;;;;13.50;9.27;;;;;;;;;;5032442;28;20237;-88
2022/03/30 04:49:59;;;;;;;12.40;8.33;;;;;;;;;;5032880;28;20191;-87
2022/03/30 04:52:26;;;;;;;12.03;8.00;;;;;;;;;;5032877;28;20234;-88
2022/03/30 04:54:54;;;;;;;15.93;10.10;;;;;;;;;;5033557;28;20230;-87
2022/03/30 04:57:21;;;;;;;16.93;10.50;;;;;;;;;;5032679;28;20702;-88
2022/03/30 04:59:48;;;;;;;13.33;10.40;;;;;;;;;;5032669;28;20198;-87
2022/03/30 05:02:16;;;;;;;14.30;10.80;;;;;;;;;;5032626;28;20277;-88
2022/03/30 05:04:44;;;;;;;14.37;9.77;;;;;;;;;;5032863;28;20581;-88
2022/03/30 05:07:14;;;;;;;11.20;8.33;;;;;;;;;;5036576;28;20214;-88
2022/03/30 05:09:41;;;;;;;11.67;9.07;;;;;;;;;;5033869;28;20202;-88
2022/03/30 05:12:09;;;;;;;23.77;16.63;;;;;;;;;;5037357;28;20205;-88
2022/03/30 05:14:36;;;;;;;21.13;14.03;;;;;;;;;;5036827;28;20202;-88
2022/03/30 05:17:04;;;;;;;18.53;12.30;;;;;;;;;;5036809;28;20205;-88
2022/03/30 05:19:32;;;;;;;15.83;10.67;;;;;;;;;;5037179;28;20266;-88
2022/03/30 05:22:00;;;;;;;18.27;11.60;;;;;;;;;;5036757;28;20236;-88
2022/03/30 05:24:28;;;;;;;14.70;10.63;;;;;;;;;;5036380;28;20198;-88
2022/03/30 05:26:55;;;;;;;22.43;15.13;;;;;;;;;;5036385;28;20660;-87
2022/03/30 05:29:22;;;;;;;22.23;12.07;;;;;;;;;;5036180;28;20237;-88
2022/03/30 05:31:49;;;;;;;15.07;12.47;;;;;;;;;;5036147;28;20232;-88
2022/03/30 05:34:17;;;;;;;24.93;19.30;;;;;;;;;;5035865;28;20273;-88
2022/03/30 05:36:44;;;;;;;18.43;10.63;;;;;;;;;;5036550;28;20205;-87
2022/03/30 05:39:13;;;;;;;13.70;8.60;;;;;;;;;;5035859;28;20270;-87
2022/03/30 05:41:40;;;;;;;15.37;9.97;;;;;;;;;;5036811;28;20199;-88
2022/03/30 05:44:08;;;;;;;18.33;10.97;;;;;;;;;;5036285;28;20591;-88
2022/03/30 05:46:36;;;;;;;26.57;16.87;;;;;;;;;;5036342;28;20298;-88
2022/03/30 05:49:04;;;;;;;165.67;108.73;;;;;;;;;;5035948;28;20234;-87
2022/03/30 05:51:31;;;;;;;106.80;77.17;;;;;;;;;;5036576;28;20209;-87
2022/03/30 05:53:58;;;;;;;29.67;20.97;;;;;;;;;;5035647;28;20198;-88
2022/03/30 05:59:08;;;;;;;26.13;15.67;;;;;;;;;;5036395;28;20217;-88
2022/03/30 06:01:35;;;;;;;28.17;15.90;;;;;;;;;;5035758;28;20679;-87
2022/03/30 06:04:03;;;;;;;21.37;14.33;;;;;;;;;;5036460;28;20206;-87
2022/03/30 06:06:30;;;;;;;18.90;11.40;;;;;;;;;;5035537;28;20580;-87
2022/03/30 06:08:57;;;;;;;23.13;12.83;;;;;;;;;;5035906;28;20238;-87
2022/03/30 06:11:25;;;;;;;26.40;11.70;;;;;;;;;;5035490;28;20202;-88
2022/03/30 06:13:53;;;;;;;12.60;9.50;;;;;;;;;;5035393;28;20202;-88
2022/03/30 06:16:21;;;;;;;18.40;11.63;;;;;;;;;;5035567;28;20212;-87
2022/03/30 06:18:48;;;;;;;23.53;12.73;;;;;;;;;;5035871;28;20579;-87
2022/03/30 06:21:15;;;;;;;17.93;12.27;;;;;;;;;;5034428;28;20294;-88
2022/03/30 06:23:42;;;;;;;21.47;13.20;;;;;;;;;;5035292;28;20278;-88
2022/03/30 06:26:09;;;;;;;26.03;12.27;;;;;;;;;;5035112;28;20210;-88
2022/03/30 06:28:37;;;;;;;22.97;12.40;;;;;;;;;;5035157;28;20227;-87
2022/03/30 06:31:05;;;;;;;15.40;10.40;;;;;;;;;;5035278;28;20285;-88
2022/03/30 06:33:33;;;;;;;31.30;18.93;;;;;;;;;;5035396;28;20216;-87
2022/03/30 06:36:00;;;;;;;19.90;15.33;;;;;;;;;;5035080;28;20234;-87
2022/03/30 06:38:27;;;;;;;18.77;11.57;;;;;;;;;;5034828;28;20278;-88
2022/03/30 06:40:54;;;;;;;24.23;14.07;;;;;;;;;;5034902;28;20245;-88
2022/03/30 06:43:22;;;;;;;22.07;17.63;;;;;;;;;;5035072;28;20238;-88
2022/03/30 06:45:50;;;;;;;20.80;13.80;;;;;;;;;;5034656;28;20557;-88
2022/03/30 06:48:19;;;;;;;17.93;12.77;;;;;;;;;;5034998;28;20226;-88
2022/03/30 06:50:46;;;;;;;22.23;16.63;;;;;;;;;;5034903;28;20256;-87
2022/03/30 06:53:13;;;;;;;17.47;12.00;;;;;;;;;;5034669;28;20701;-88
2022/03/30 06:55:40;;;;;;;18.13;10.93;;;;;;;;;;5034633;28;20205;-88
2022/03/30 06:58:08;;;;;;;16.40;9.17;;;;;;;;;;5034722;28;20203;-88
2022/03/30 07:00:35;;;;;;;16.47;9.13;;;;;;;;;;5034739;28;20253;-88
2022/03/30 07:03:03;;;;;;;11.13;8.37;;;;;;;;;;5034789;28;20621;-87
2022/03/30 07:05:33;;;;;;;10.97;8.27;;;;;;;;;;5034486;28;20293;-88
2022/03/30 07:10:50;;;;;;;15.07;8.70;;;;;;;;;;4997093;28;20294;-88
2022/03/30 07:13:17;;;;;;;22.73;13.77;;;;;;;;;;5034863;28;20211;-88
2022/03/30 07:15:44;;;;;;;18.73;14.90;;;;;;;;;;5034975;28;20209;-88
2022/03/30 07:18:13;;;;;;;17.90;10.40;;;;;;;;;;5034501;28;20202;-88
2022/03/30 07:20:42;;;;;;;11.80;8.70;;;;;;;;;;5034713;28;20203;-88
2022/03/30 07:23:10;;;;;;;16.60;10.63;;;;;;;;;;5034890;28;20693;-88
2022/03/30 07:25:38;;;;;;;18.43;12.37;;;;;;;;;;5033956;28;20237;-88
2022/03/30 07:28:06;;;;;;;19.57;12.73;;;;;;;;;;5034242;28;20254;-88
2022/03/30 07:30:33;;;;;;;16.77;13.30;;;;;;;;;;5034160;28;20289;-88
2022/03/30 07:33:01;;;;;;;13.87;11.90;;;;;;;;;;5033980;28;20778;-88
2022/03/30 07:35:32;;;;;;;24.47;14.87;;;;;;;;;;5033809;28;20659;-88
2022/03/30 07:38:02;;;;;;;19.40;10.57;;;;;;;;;;5033867;28;20285;-88
2022/03/30 07:40:30;;;;;;;15.80;13.57;;;;;;;;;;5034788;28;20203;-88
2022/03/30 07:42:57;;;;;;;11.43;10.23;;;;;;;;;;5033705;28;20195;-88
2022/03/30 07:45:25;;;;;;;12.77;9.87;;;;;;;;;;5033735;28;20198;-88
2022/03/30 07:47:53;;;;;;;14.63;12.63;;;;;;;;;;5033885;28;20265;-88
2022/03/30 07:50:20;;;;;;;16.93;12.57;;;;;;;;;;5033975;28;20235;-89
2022/03/30 07:52:48;;;;;;;22.23;16.27;;;;;;;;;;5033604;28;20249;-88
2022/03/30 07:55:16;;;;;;;23.87;16.57;;;;;;;;;;5033607;28;20222;-89
2022/03/30 07:57:44;;;;;;;18.50;12.43;;;;;;;;;;5033845;28;20198;-88
2022/03/30 08:00:17;;;;;;;22.83;14.00;;;;;;;;;;5035708;28;20615;-88
2022/03/30 08:02:44;;;;;;;22.77;16.87;;;;;;;;;;5033720;28;20190;-88
2022/03/30 08:05:13;;;;;;;17.10;12.40;;;;;;;;;;5033936;28;20205;-88
2022/03/30 08:07:40;;;;;;;24.57;18.10;;;;;;;;;;5033445;28;20200;-89
2022/03/30 08:10:09;;;;;;;19.77;15.93;;;;;;;;;;5033739;28;20282;-88
2022/03/30 08:12:39;;;;;;;18.70;14.80;;;;;;;;;;5034265;28;20195;-89
2022/03/30 08:15:08;;;;;;;21.87;18.07;;;;;;;;;;5033466;28;20286;-88
2022/03/30 08:17:36;;;;;;;25.07;17.33;;;;;;;;;;5033483;28;20664;-88
2022/03/30 08:20:04;;;;;;;25.77;18.50;;;;;;;;;;5033509;28;20290;-89
2022/03/30 08:22:30;;;;;;;27.63;18.30;;;;;;;;;;5033409;28;20198;-88
2022/03/30 08:25:00;;;;;;;44.47;30.20;;;;;;;;;;5033424;28;20757;-88
2022/03/30 08:27:30;;;;;;;26.63;23.77;;;;;;;;;;5033510;28;20211;-89
2022/03/30 08:29:59;;;;;;;27.07;19.37;;;;;;;;;;5033427;28;20204;-88
2022/03/30 08:32:27;;;;;;;15.97;12.90;;;;;;;;;;5033340;28;20736;-88
2022/03/30 08:34:56;;;;;;;15.27;11.67;;;;;;;;;;5032826;28;20323;-89
2022/03/30 08:37:24;;;;;;;19.43;13.73;;;;;;;;;;5033394;28;20292;-89
2022/03/30 08:39:53;;;;;;;16.47;11.83;;;;;;;;;;5033535;28;20229;-89
2022/03/30 08:42:20;;;;;;;19.57;12.23;;;;;;;;;;5032929;28;20230;-88
2022/03/30 08:44:49;;;;;;;21.67;11.63;;;;;;;;;;5032934;28;20205;-89
2022/03/30 08:47:18;;;;;;;15.20;10.10;;;;;;;;;;5033296;28;20197;-89
2022/03/30 08:49:47;;;;;;;14.93;11.10;;;;;;;;;;5033410;28;20320;-89
2022/03/30 08:52:16;;;;;;;21.53;13.60;;;;;;;;;;5032998;28;20228;-88
2022/03/30 08:54:44;;;;;;;13.50;10.90;;;;;;;;;;5034069;28;20249;-88
2022/03/30 08:57:12;;;;;;;20.43;11.33;;;;;;;;;;5032898;28;20201;-89
2022/03/30 08:59:40;;;;;;;18.50;12.83;;;;;;;;;;5032912;28;20201;-89
2022/03/30 09:02:09;;;;;;;16.90;11.93;;;;;;;;;;5032944;28;20229;-89
2022/03/30 09:04:38;;;;;;;15.27;11.90;;;;;;;;;;5032602;28;20293;-89
2022/03/30 09:07:06;;;;;;;12.80;10.23;;;;;;;;;;5032531;28;20202;-89
2022/03/30 09:09:35;;;;;;;17.83;10.63;;;;;;;;;;5032991;28;20233;-89
2022/03/30 09:12:08;;;;;;;12.37;11.07;;;;;;;;;;5032412;28;20202;-89
2022/03/30 09:14:37;;;;;;;21.83;13.83;;;;;;;;;;5032623;28;20189;-89
2022/03/30 09:17:06;;;;;;;18.23;10.67;;;;;;;;;;5032651;28;20201;-89
2022/03/30 09:19:36;;;;;;;15.27;10.43;;;;;;;;;;5032521;28;20252;-89
2022/03/30 09:22:06;;;;;;;11.93;10.47;;;;;;;;;;5032344;28;20248;-89
2022/03/30 09:24:35;;;;;;;19.43;10.90;;;;;;;;;;5032410;28;20199;-89
2022/03/30 09:27:04;;;;;;;12.53;11.23;;;;;;;;;;5032550;28;20242;-89
2022/03/30 09:29:33;;;;;;;18.63;12.83;;;;;;;;;;5032222;28;20317;-89
2022/03/30 09:32:03;;;;;;;19.67;12.70;;;;;;;;;;5032269;28;20207;-89
2022/03/30 09:34:34;;;;;;;10.67;8.77;;;;;;;;;;5032272;28;20242;-88
2022/03/30 09:37:01;;;;;;;15.33;10.93;;;;;;;;;;5032154;28;20240;-89
2022/03/30 09:39:33;;;;;;;17.23;12.87;;;;;;;;;;5032181;28;20671;-89
2022/03/30 09:42:01;;;;;;;13.20;10.13;;;;;;;;;;5032696;28;20191;-89
2022/03/30 09:44:29;;;;;;;14.93;11.00;;;;;;;;;;5032358;28;20289;-89
2022/03/30 09:46:58;;;;;;;15.27;12.00;;;;;;;;;;5032517;28;20276;-89
2022/03/30 09:49:37;;;;;;;17.37;11.83;;;;;;;;;;5032080;28;20695;-89
2022/03/30 09:52:19;;;;;;;27.10;17.07;;;;;;;;;;5032098;28;20183;-89
2022/03/30 09:54:50;;;;;;;45.53;25.90;;;;;;;;;;5032272;28;20191;-89
2022/03/30 09:57:20;;;;;;;12.80;11.13;;;;;;;;;;5033905;28;20194;-89
2022/03/30 09:59:59;;;;;;;19.17;13.30;;;;;;;;;;5035723;28;20187;-89
2022/03/30 10:02:26;;;;;;;15.97;10.83;;;;;;;;;;5035920;28;20601;-89
2022/03/30 10:04:54;;;;;;;16.00;9.03;;;;;;;;;;5035713;28;20234;-89
2022/03/30 10:07:22;;;;;;;14.13;11.07;;;;;;;;;;5035779;28;20202;-89
2022/03/30 10:09:51;;;;;;;15.07;11.07;;;;;;;;;;5035774;28;20314;-89
2022/03/30 10:12:19;;;;;;;14.80;10.67;;;;;;;;;;5035688;28;20289;-89
2022/03/30 10:14:48;;;;;;;18.37;12.77;;;;;;;;;;5035621;28;20199;-89
2022/03/30 10:17:15;;;;;;;19.13;12.37;;;;;;;;;;5035453;28;20198;-89
2022/03/30 10:19:44;;;;;;;13.30;9.87;;;;;;;;;;5035551;28;20221;-89
2022/03/30 10:22:59;;;;;;;13.90;11.20;;;;;;;;;;5035648;28;20206;-89
2022/03/30 10:25:40;;;;;;;16.60;10.57;;;;;;;;;;4955457;29;20225;-89
2022/03/30 10:28:15;;;;;;;32.10;20.97;;;;;;;;;;5033874;28;20206;-89
2022/03/30 10:30:43;;;;;;;29.53;21.27;;;;;;;;;;5035394;28;20210;-89
2022/03/30 10:33:11;;;;;;;18.20;12.80;;;;;;;;;;5035297;28;20202;-89
2022/03/30 10:35:40;;;;;;;14.20;10.63;;;;;;;;;;5035184;28;20645;-89
2022/03/30 10:38:08;;;;;;;13.47;10.03;;;;;;;;;;5035305;28;20558;-89
2022/03/30 10:40:37;;;;;;;11.60;8.43;;;;;;;;;;5034924;28;20190;-90
2022/03/30 10:43:06;;;;;;;14.07;10.33;;;;;;;;;;5034877;28;20289;-89
2022/03/30 10:45:40;;;;;;;23.67;14.87;;;;;;;;;;5034858;28;20210;-89
2022/03/30 10:48:11;;;;;;;13.70;10.30;;;;;;;;;;5035134;28;20190;-89
2022/03/30 10:50:41;;;;;;;17.57;10.57;;;;;;;;;;5034616;28;20708;-89
2022/03/30 10:53:43;;;;;;;15.10;10.10;;;;;;;;;;5034598;28;20205;-89
2022/03/30 10:56:29;;;;;;;20.03;11.67;;;;;;;;;;5029823;28;20206;-90
2022/03/30 10:59:14;;;;;;;17.43;10.80;;;;;;;;;;5034773;28;20688;-89
2022/03/30 11:01:41;;;;;;;20.40;10.60;;;;;;;;;;5035067;28;20751;-89
2022/03/30 11:04:18;;;;;;;17.97;10.90;;;;;;;;;;5034586;28;20199;-89
2022/03/30 11:06:47;;;;;;;18.00;11.37;;;;;;;;;;5034285;28;20183;-89
2022/03/30 11:09:23;;;;;;;14.03;10.90;;;;;;;;;;5034185;28;20238;-89
2022/03/30 11:11:59;;;;;;;15.57;11.53;;;;;;;;;;5035118;28;20650;-89
2022/03/30 11:14:28;;;;;;;20.67;12.07;;;;;;;;;;5034393;28;20277;-89
2022/03/30 11:16:57;;;;;;;18.30;12.97;;;;;;;;;;5034129;28;20203;-89
2022/03/30 11:19:29;;;;;;;17.17;10.90;;;;;;;;;;5034545;28;20198;-89
2022/03/30 11:22:05;;;;;;;21.43;16.13;;;;;;;;;;5034280;28;20187;-89
2022/03/30 11:24:33;;;;;;;24.60;16.27;;;;;;;;;;5034535;28;20292;-90
2022/03/30 11:27:19;;;;;;;13.30;9.70;;;;;;;;;;5034154;28;20194;-89
2022/03/30 11:30:03;;;;;;;19.97;17.00;;;;;;;;;;5034249;28;20229;-89
2022/03/30 11:32:40;;;;;;;22.27;13.57;;;;;;;;;;5033268;28;20237;-89
2022/03/30 11:35:10;;;;;;;19.87;11.63;;;;;;;;;;5033834;28;20234;-89
2022/03/30 11:37:40;;;;;;;13.30;10.70;;;;;;;;;;5034566;28;20206;-89
2022/03/30 11:40:09;;;;;;;15.83;12.63;;;;;;;;;;5033863;28;20274;-88
2022/03/30 11:42:40;;;;;;;22.80;18.33;;;;;;;;;;5033852;28;20293;-89
2022/03/30 11:45:15;;;;;;;12.77;10.30;;;;;;;;;;5033846;28;20199;-89
2022/03/30 11:47:44;;;;;;;15.07;9.23;;;;;;;;;;5033628;28;20222;-89
2022/03/30 11:50:13;;;;;;;14.00;9.03;;;;;;;;;;5033494;28;20725;-89
2022/03/30 11:52:41;;;;;;;13.13;9.40;;;;;;;;;;5033619;28;20205;-89
2022/03/30 11:55:08;;;;;;;14.13;10.30;;;;;;;;;;5033567;28;20294;-89
2022/03/30 11:57:41;;;;;;;15.87;10.70;;;;;;;;;;5033487;28;20191;-88
2022/03/30 12:00:11;;;;;;;16.07;11.37;;;;;;;;;;5034042;28;20183;-89
2022/03/30 12:02:38;;;;;;;11.87;8.60;;;;;;;;;;5033378;28;20215;-89
2022/03/30 12:05:07;;;;;;;18.30;11.40;;;;;;;;;;5033664;28;20202;-88
2022/03/30 12:07:36;;;;;;;19.70;11.57;;;;;;;;;;5033489;28;20206;-89
2022/03/30 12:10:05;;;;;;;18.87;12.63;;;;;;;;;;5033447;28;20290;-89
2022/03/30 12:12:36;;;;;;;19.57;14.00;;;;;;;;;;5033181;28;20242;-88
2022/03/30 12:15:07;;;;;;;12.93;11.13;;;;;;;;;;5033096;28;20191;-89
2022/03/30 12:17:35;;;;;;;15.03;13.47;;;;;;;;;;5033438;28;20197;-89
2022/03/30 12:20:05;;;;;;;24.53;10.87;;;;;;;;;;5032477;28;20199;-89
2022/03/30 12:22:32;;;;;;;13.27;10.50;;;;;;;;;;5033210;28;20273;-88
2022/03/30 12:24:59;;;;;;;13.77;10.43;;;;;;;;;;5033189;28;20634;-89
2022/03/30 12:27:27;;;;;;;14.33;10.13;;;;;;;;;;5032979;28;20195;-89
2022/03/30 12:29:58;;;;;;;17.07;10.60;;;;;;;;;;5032875;28;20305;-88
2022/03/30 12:32:27;;;;;;;14.53;10.57;;;;;;;;;;5032926;28;20289;-89
2022/03/30 12:35:10;;;;;;;17.13;11.27;;;;;;;;;;5032560;28;20226;-89
2022/03/30 12:37:37;;;;;;;15.30;10.07;;;;;;;;;;5033059;28;20205;-89
2022/03/30 12:40:10;;;;;;;15.07;12.00;;;;;;;;;;5032688;28;20287;-89
2022/03/30 12:42:38;;;;;;;14.20;10.27;;;;;;;;;;5032902;28;20198;-89
2022/03/30 12:45:10;;;;;;;15.17;10.63;;;;;;;;;;5032864;28;20198;-89
2022/03/30 12:47:40;;;;;;;10.70;9.60;;;;;;;;;;5033111;28;20199;-89
2022/03/30 12:50:10;;;;;;;10.77;9.13;;;;;;;;;;5033221;28;20301;-89
2022/03/30 12:52:39;;;;;;;13.90;10.33;;;;;;;;;;5032952;28;20221;-89
2022/03/30 12:55:19;;;;;;;14.70;9.70;;;;;;;;;;5032917;28;20205;-89
2022/03/30 12:57:54;;;;;;;14.87;9.90;;;;;;;;;;5032598;28;20702;-89
2022/03/30 13:00:24;;;;;;;11.50;10.23;;;;;;;;;;5032606;28;20683;-89
2022/03/30 13:03:05;;;;;;;13.23;11.57;;;;;;;;;;5032509;28;20230;-89
2022/03/30 13:05:34;;;;;;;20.73;13.17;;;;;;;;;;5032605;28;20244;-88
2022/03/30 13:08:01;;;;;;;14.27;10.47;;;;;;;;;;5032481;28;20198;-89
2022/03/30 13:10:29;;;;;;;12.23;9.43;;;;;;;;;;5032353;28;20223;-89
2022/03/30 13:12:56;;;;;;;13.07;9.60;;;;;;;;;;5032469;28;20253;-89
2022/03/30 13:15:25;;;;;;;14.30;12.27;;;;;;;;;;5032479;28;20770;-89
2022/03/30 13:17:57;;;;;;;20.37;13.50;;;;;;;;;;5032513;28;20203;-88
2022/03/30 13:20:26;;;;;;;16.70;14.97;;;;;;;;;;5032649;28;20195;-88
2022/03/30 13:22:56;;;;;;;14.30;12.03;;;;;;;;;;5032283;28;20198;-89
2022/03/30 13:25:32;;;;;;;19.07;12.23;;;;;;;;;;5032305;28;20197;-89
2022/03/30 13:28:01;;;;;;;27.90;19.50;;;;;;;;;;5032290;28;20222;-89
2022/03/30 13:30:29;;;;;;;15.47;12.30;;;;;;;;;;5033058;28;20301;-89
2022/03/30 13:32:57;;;;;;;16.10;11.70;;;;;;;;;;5036190;28;20198;-89
2022/03/30 13:35:27;;;;;;;13.97;9.10;;;;;;;;;;5035847;28;20333;-89
2022/03/30 13:37:55;;;;;;;15.23;11.97;;;;;;;;;;5036265;28;20187;-89
2022/03/30 13:40:22;;;;;;;21.10;15.33;;;;;;;;;;5036312;28;20203;-89
2022/03/30 13:42:49;;;;;;;15.30;11.60;;;;;;;;;;5036179;28;20575;-88
2022/03/30 13:45:17;;;;;;;20.07;14.03;;;;;;;;;;5036071;28;20767;-88
2022/03/30 13:47:44;;;;;;;20.60;14.70;;;;;;;;;;5036491;28;20198;-89
2022/03/30 13:50:12;;;;;;;10.93;9.77;;;;;;;;;;5035873;28;20199;-89
2022/03/30 13:52:40;;;;;;;13.27;9.57;;;;;;;;;;5035773;28;20199;-89
2022/03/30 13:55:09;;;;;;;14.63;11.93;;;;;;;;;;5035762;28;20195;-88
2022/03/30 13:57:36;;;;;;;17.90;9.30;;;;;;;;;;5036072;28;20579;-88
2022/03/30 14:00:07;;;;;;;15.17;11.57;;;;;;;;;;5035811;28;20285;-88
2022/03/30 14:02:35;;;;;;;14.90;9.40;;;;;;;;;;5035603;28;20275;-88
2022/03/30 14:05:02;;;;;;;10.57;7.87;;;;;;;;;;5035831;28;20641;-88
2022/03/30 14:07:30;;;;;;;16.97;9.17;;;;;;;;;;5035431;28;20289;-88
2022/03/30 14:09:59;;;;;;;11.27;8.13;;;;;;;;;;5035721;28;20205;-89
2022/03/30 14:12:27;;;;;;;11.93;8.20;;;;;;;;;;5035486;28;20219;-89
2022/03/30 14:14:55;;;;;;;18.90;8.73;;;;;;;;;;5035465;28;20202;-88
2022/03/30 14:17:22;;;;;;;15.00;10.27;;;;;;;;;;5035380;28;20197;-88
2022/03/30 14:19:50;;;;;;;14.23;10.33;;;;;;;;;;5035507;28;20199;-89
2022/03/30 14:22:17;;;;;;;14.67;10.57;;;;;;;;;;5035372;28;20223;-88
2022/03/30 14:24:44;;;;;;;16.33;9.40;;;;;;;;;;5035119;28;20195;-89
2022/03/30 14:27:14;;;;;;;12.10;7.57;;;;;;;;;;5035117;28;20226;-88
2022/03/30 14:29:41;;;;;;;13.50;10.00;;;;;;;;;;5035306;28;20634;-88
2022/03/30 14:32:09;;;;;;;16.47;11.27;;;;;;;;;;5034902;28;20313;-88
2022/03/30 14:34:36;;;;;;;11.10;7.73;;;;;;;;;;5035019;28;20372;-88
2022/03/30 14:37:03;;;;;;;9.27;6.53;;;;;;;;;;5034702;28;20305;-88
2022/03/30 14:39:31;;;;;;;10.57;7.53;;;;;;;;;;5034814;28;20694;-87
2022/03/30 14:41:58;;;;;;;13.27;7.27;;;;;;;;;;5034662;28;20282;-88